createdAt,value
2023-01-03T00:00:00.941Z,12.60
2023-01-03T00:10:09.907Z,12.40
2023-01-03T00:20:15.933Z,15.20
2023-01-03T00:30:21.616Z,11.00
2023-01-03T00:40:27.375Z,12.40
2023-01-03T00:50:33.001Z,11.80
2023-01-03T01:00:38.886Z,10.20
2023-01-03T01:11:01.858Z,10.00
2023-01-03T01:21:10.231Z,9.30
2023-01-03T01:31:17.881Z,8.60
2023-01-03T01:41:37.949Z,10.90
2023-01-03T01:51:44.219Z,12.60
2023-01-03T02:01:52.669Z,10.90
2023-01-03T02:12:17.034Z,8.30
2023-01-03T02:22:52.253Z,5.90
2023-01-03T02:33:06.584Z,6.30
2023-01-03T02:43:17.972Z,8.10
2023-01-03T02:53:29.138Z,7.10
2023-01-03T03:03:40.362Z,7.10
2023-01-03T03:13:52.195Z,7.10
2023-01-03T03:24:35.793Z,10.40
2023-01-03T03:34:43.770Z,7.00
2023-01-03T03:45:04.153Z,7.60
2023-01-03T03:55:16.377Z,6.30
2023-01-03T04:05:25.296Z,8.50
2023-01-03T04:15:31.217Z,9.40
2023-01-03T04:25:37.005Z,7.90
2023-01-03T04:35:42.762Z,9.10
2023-01-03T04:45:50.821Z,6.90
2023-01-03T04:55:57.819Z,6.60
2023-01-03T05:06:06.147Z,8.70
2023-01-03T05:16:14.556Z,7.70
2023-01-03T05:26:22.859Z,6.50
2023-01-03T05:36:28.655Z,9.00
2023-01-03T05:46:34.782Z,7.60
2023-01-03T05:56:40.601Z,7.40
2023-01-03T06:06:46.428Z,8.70
2023-01-03T06:17:15.106Z,10.20
2023-01-03T06:27:21.076Z,10.00
2023-01-03T06:37:26.799Z,9.60
2023-01-03T06:47:50.275Z,8.10
2023-01-03T06:57:55.935Z,8.10
2023-01-03T07:08:01.769Z,6.20
2023-01-03T07:18:07.909Z,6.10
2023-01-03T07:28:15.248Z,6.50
2023-01-03T07:38:21.198Z,7.30
2023-01-03T07:48:27.072Z,4.40
2023-01-03T07:58:33.477Z,6.10
2023-01-03T08:08:39.519Z,5.20
2023-01-03T08:18:46.070Z,4.00
2023-01-03T08:28:52.701Z,5.00
2023-01-03T08:39:03.558Z,4.90
2023-01-03T08:49:10.023Z,6.50
2023-01-03T08:59:15.911Z,4.20
2023-01-03T09:09:21.852Z,4.30
2023-01-03T09:19:27.594Z,4.80
2023-01-03T09:29:33.454Z,5.90
2023-01-03T09:39:40.754Z,4.00
2023-01-03T09:50:18.334Z,7.10
2023-01-03T10:00:42.656Z,4.60
2023-01-03T10:11:02.061Z,7.80
2023-01-03T10:21:14.774Z,5.00
2023-01-03T10:31:44.357Z,6.90
2023-01-03T10:41:52.765Z,3.20
2023-01-03T10:52:02.742Z,5.40
2023-01-03T11:02:23.469Z,3.40
2023-01-03T11:12:36.740Z,3.90
2023-01-03T11:22:47.537Z,3.80
2023-01-03T11:33:08.944Z,3.10
2023-01-03T11:43:31.166Z,3.70
2023-01-03T11:53:40.533Z,3.40
2023-01-03T12:04:02.783Z,2.90
2023-01-03T12:14:16.369Z,4.00
2023-01-03T12:24:33.064Z,2.70
2023-01-03T12:34:46.350Z,3.90
2023-01-03T12:45:01.277Z,2.50
2023-01-03T12:55:19.968Z,3.90
2023-01-03T13:05:30.818Z,2.60
2023-01-03T13:15:37.847Z,4.40
2023-01-03T13:25:44.806Z,5.20
2023-01-03T13:36:02.440Z,4.90
2023-01-03T13:46:22.445Z,8.20
2023-01-03T13:56:31.667Z,6.70
2023-01-03T14:06:58.348Z,10.70
2023-01-03T14:17:05.830Z,7.40
2023-01-03T14:37:26.550Z,7.70
2023-01-03T14:47:38.722Z,4.50
2023-01-03T14:57:45.774Z,8.10
2023-01-03T15:07:51.548Z,4.70
2023-01-03T15:18:00.877Z,6.10
2023-01-03T15:28:25.161Z,5.80
2023-01-03T15:38:35.597Z,6.90
2023-01-03T15:48:43.269Z,6.40
2023-01-03T15:58:50.969Z,5.60
2023-01-03T16:08:56.960Z,7.30
2023-01-03T16:19:04.245Z,9.80
2023-01-03T16:29:10.180Z,9.00
2023-01-03T16:39:18.382Z,17.30
2023-01-03T16:49:24.413Z,32.50
2023-01-03T16:59:30.078Z,19.20
2023-01-03T17:09:38.137Z,70.50
2023-01-03T17:20:03.398Z,23.00
2023-01-03T17:30:14.523Z,23.50
2023-01-03T17:40:29.250Z,25.30
2023-01-03T17:50:39.020Z,41.10
2023-01-03T18:00:44.995Z,36.80
2023-01-03T18:10:53.449Z,22.00
2023-01-03T18:21:00.308Z,20.90
2023-01-03T18:31:07.360Z,17.20
2023-01-03T18:41:18.981Z,62.70
2023-01-03T18:51:28.979Z,36.80
2023-01-03T19:01:36.113Z,38.90
2023-01-03T19:11:42.645Z,78.80
2023-01-03T19:21:49.195Z,48.10
2023-01-03T19:42:20.026Z,33.40
2023-01-03T19:52:25.953Z,25.40
2023-01-03T20:02:40.952Z,33.00
2023-01-03T20:12:48.029Z,34.90
2023-01-03T20:23:05.844Z,36.40
2023-01-03T20:33:12.524Z,34.20
2023-01-03T20:43:19.714Z,43.00
2023-01-03T20:53:26.995Z,45.60
2023-01-03T21:03:32.939Z,67.60
2023-01-03T21:13:39.088Z,79.30
2023-01-03T21:23:44.933Z,49.90
2023-01-03T21:33:51.085Z,62.90
2023-01-03T21:43:58.733Z,109.00
2023-01-03T21:54:04.923Z,98.00
2023-01-03T22:04:17.823Z,76.00
2023-01-03T22:14:23.698Z,75.20
2023-01-03T22:24:29.812Z,72.80
2023-01-03T22:34:35.820Z,73.40
2023-01-03T22:44:41.943Z,86.40
2023-01-03T22:54:47.824Z,77.30
2023-01-03T23:04:53.542Z,68.70
2023-01-03T23:14:59.736Z,57.70
2023-01-03T23:25:06.065Z,52.70
2023-01-03T23:35:12.491Z,51.70
2023-01-03T23:45:18.596Z,55.40
2023-01-03T23:55:24.443Z,53.40
